Time,TemperatureF,DewpointF,PressureIn,WindDirection,WindDirectionDegrees,WindSpeedMPH,WindSpeedGustMPH,Humidity,HourlyPrecipIn,Conditions,Clouds,dailyrainin,SoftwareType,DateUTC
2013-01-14 11:36:00,33.1,33.1,30.08,North,0,0.0,0.0,100,0.00,,---,0.01,VWS V14.01,2013-01-14 18:36:00,
2013-01-14 11:37:00,27.9,10.8,29.87,SE,135,0.7,0.7,48,0.00,,---,14.10,VWS V14.01,2013-01-14 18:37:00,
2013-01-14 11:38:00,27.9,10.8,29.87,ENE,68,1.8,1.8,48,0.00,,---,14.10,VWS V14.01,2013-01-14 18:38:00,
2013-01-14 11:39:00,28.1,10.9,29.87,ESE,112,1.8,1.8,48,0.00,,---,14.10,VWS V14.01,2013-01-14 18:39:00,
2013-01-14 11:40:00,28.1,10.9,29.87,South,180,1.3,4.5,48,0.00,,---,14.10,VWS V14.01,2013-01-14 18:40:00,
2013-01-14 11:41:00,28.1,12.8,29.87,SE,135,1.1,1.3,52,0.00,,---,14.10,VWS V14.01,2013-01-14 18:41:00,
2013-01-14 11:42:00,28.1,13.2,29.87,SE,135,1.1,1.3,53,0.00,,---,14.10,VWS V14.01,2013-01-14 18:42:00,
2013-01-14 11:43:00,28.1,12.8,29.87,East,90,1.6,1.6,52,0.00,,---,14.10,VWS V14.01,2013-01-14 18:43:00,
2013-01-14 11:44:00,28.1,12.3,29.87,East,90,0.4,1.6,51,0.00,,---,14.10,VWS V14.01,2013-01-14 18:44:00,
2013-01-14 11:45:00,28.3,12.1,29.87,NNE,22,1.1,1.1,50,0.00,,---,14.10,VWS V14.01,2013-01-14 18:45:00,
2013-01-14 11:46:00,28.4,11.7,29.86,NNE,22,0.2,0.4,49,0.00,,---,14.10,VWS V14.01,2013-01-14 18:46:00,
2013-01-14 11:47:00,28.4,11.7,29.86,NNE,22,0.2,0.4,49,0.00,,---,14.10,VWS V14.01,2013-01-14 18:47:00,
2013-01-14 11:48:00,28.6,11.9,29.86,South,180,0.4,0.4,49,0.00,,---,14.10,VWS V14.01,2013-01-14 18:48:00,
2013-01-14 11:49:00,28.8,12.1,29.86,SSE,158,2.5,2.5,49,0.00,,---,14.10,VWS V14.01,2013-01-14 18:49:00,
2013-01-14 11:50:00,28.8,12.5,29.86,SE,135,3.8,5.4,50,0.00,,---,14.10,VWS V14.01,2013-01-14 18:50:00,
2013-01-14 11:51:00,28.4,12.6,29.86,South,180,2.5,2.5,51,0.00,,---,14.10,VWS V14.01,2013-01-14 18:51:00,
2013-01-14 11:52:00,28.4,11.7,29.86,SE,135,1.8,2.5,49,0.00,,---,14.10,VWS V14.01,2013-01-14 18:52:00,
2013-01-14 11:53:00,28.3,11.6,29.86,South,180,1.8,1.8,49,0.00,,---,14.10,VWS V14.01,2013-01-14 18:53:00,
2013-01-14 11:54:00,28.1,11.4,29.86,ESE,112,1.3,1.8,49,0.00,,---,14.10,VWS V14.01,2013-01-14 18:54:00,
2013-01-14 11:55:00,28.3,12.1,29.86,NNE,22,0.7,1.3,50,0.00,,---,14.10,VWS V14.01,2013-01-14 18:55:00,
2013-01-14 11:56:00,28.4,11.7,29.86,ENE,68,1.1,1.8,49,0.00,,---,14.10,VWS V14.01,2013-01-14 18:56:00,
2013-01-14 11:57:00,28.4,12.1,29.86,North,0,0.0,1.8,50,0.00,,---,14.10,VWS V14.01,2013-01-14 18:57:00,
2013-01-14 11:58:00,28.8,12.5,29.86,SSE,158,0.7,0.7,50,0.00,,---,14.10,VWS V14.01,2013-01-14 18:58:00,
2013-01-14 11:59:00,29.0,11.8,29.86,SE,135,6.0,6.0,48,0.00,,---,14.10,VWS V14.01,2013-01-14 18:59:00,
2013-01-14 12:00:00,29.0,11.8,29.86,SE,135,6.0,6.0,48,0.00,,---,14.10,VWS V14.01,2013-01-14 19:00:00,
2013-01-14 12:01:00,29.2,12.4,29.86,SSE,158,4.5,4.5,49,0.00,,---,14.10,VWS V14.01,2013-01-14 19:01:00,
2013-01-14 12:02:00,28.8,12.1,29.86,ESE,112,2.2,4.5,49,0.00,,---,14.10,VWS V14.01,2013-01-14 19:02:00,
2013-01-14 12:03:00,28.6,11.9,29.86,South,180,5.1,5.1,49,0.00,,---,14.10,VWS V14.01,2013-01-14 19:03:00,
2013-01-14 12:04:00,28.6,12.3,29.86,South,180,3.6,5.1,50,0.00,,---,14.10,VWS V14.01,2013-01-14 19:04:00,
2013-01-14 12:05:00,28.8,13.0,29.86,SSE,158,4.0,4.0,51,0.00,,---,14.10,VWS V14.01,2013-01-14 19:05:00,
2013-01-14 12:06:00,28.8,12.1,29.86,SE,135,2.9,2.9,49,0.00,,---,14.10,VWS V14.01,2013-01-14 19:06:00,
2013-01-14 12:07:00,29.0,12.7,29.86,SE,135,3.6,3.6,50,0.00,,---,14.10,VWS V14.01,2013-01-14 19:07:00,
2013-01-14 12:08:00,29.0,13.1,29.86,SSE,158,4.0,4.0,51,0.00,,---,14.10,VWS V14.01,2013-01-14 19:08:00,
2013-01-14 12:09:00,29.0,13.1,29.85,SSE,158,1.3,4.0,51,0.00,,---,14.10,VWS V14.01,2013-01-14 19:09:00,
2013-01-14 12:10:00,29.0,12.7,29.85,SE,135,4.5,4.5,50,0.00,,---,14.10,VWS V14.01,2013-01-14 19:10:00,
2013-01-14 12:11:00,29.2,12.0,29.86,SSE,158,4.5,4.5,48,0.00,,---,14.10,VWS V14.01,2013-01-14 19:11:00,
2013-01-14 12:12:00,29.2,12.4,29.86,SE,135,4.9,4.9,49,0.00,,---,14.10,VWS V14.01,2013-01-14 19:12:00,
2013-01-14 12:13:00,29.2,12.4,29.86,SSE,158,3.4,4.9,49,0.00,,---,14.10,VWS V14.01,2013-01-14 19:13:00,
2013-01-14 12:14:00,29.0,12.2,29.86,SSE,158,2.9,3.4,49,0.00,,---,14.10,VWS V14.01,2013-01-14 19:14:00,
2013-01-14 12:15:00,28.8,12.5,29.86,ESE,112,5.8,5.8,50,0.00,,---,14.10,VWS V14.01,2013-01-14 19:15:00,
2013-01-14 12:16:00,28.4,12.1,29.86,SSE,158,3.4,3.4,50,0.00,,---,14.10,VWS V14.01,2013-01-14 19:16:00,
2013-01-14 12:17:00,28.1,11.4,29.86,SSE,158,4.0,4.0,49,0.00,,---,14.10,VWS V14.01,2013-01-14 19:17:00,
2013-01-14 12:18:00,27.9,11.2,29.86,ESE,112,2.5,4.0,49,0.00,,---,14.10,VWS V14.01,2013-01-14 19:18:00,
2013-01-14 12:19:00,27.7,11.9,29.86,SE,135,3.4,3.4,51,0.00,,---,14.10,VWS V14.01,2013-01-14 19:19:00,
2013-01-14 12:20:00,27.7,12.4,29.86,SE,135,3.4,3.4,52,0.00,,---,14.10,VWS V14.01,2013-01-14 19:20:00,
2013-01-14 12:21:00,27.7,12.8,29.86,SSE,158,2.5,2.5,53,0.00,,---,14.10,VWS V14.01,2013-01-14 19:21:00,
2013-01-14 12:22:00,27.5,13.5,29.86,SE,135,3.6,3.6,55,0.00,,---,14.10,VWS V14.01,2013-01-14 19:22:00,
2013-01-14 12:23:00,27.5,14.3,29.86,SE,135,3.4,3.6,57,0.00,,---,14.10,VWS V14.01,2013-01-14 19:23:00,
2013-01-14 12:24:00,27.5,15.4,29.86,SSE,158,3.4,3.4,60,0.00,,---,14.10,VWS V14.01,2013-01-14 19:24:00,
2013-01-14 12:25:00,27.5,16.9,29.86,SE,135,1.1,3.4,64,0.00,,---,14.10,VWS V14.01,2013-01-14 19:25:00,
2013-01-14 12:26:00,27.7,17.8,29.85,SSE,158,1.8,1.8,66,0.00,,---,14.10,VWS V14.01,2013-01-14 19:26:00,
2013-01-14 12:27:00,27.7,18.2,29.86,SSE,158,1.8,1.8,67,0.00,,---,14.10,VWS V14.01,2013-01-14 19:27:00,
2013-01-14 12:28:00,27.7,18.5,29.86,SSW,202,1.8,1.8,68,0.00,,---,14.10,VWS V14.01,2013-01-14 19:28:00,
2013-01-14 12:29:00,27.7,17.8,29.85,SSW,202,3.4,3.4,66,0.00,,---,14.10,VWS V14.01,2013-01-14 19:29:00,
2013-01-14 12:30:00,27.2,17.0,29.85,SSE,158,1.8,3.4,65,0.00,,---,14.10,VWS V14.01,2013-01-14 19:30:00,
2013-01-14 12:31:00,27.0,18.2,29.85,SSE,158,1.8,1.8,69,0.00,,---,14.10,VWS V14.01,2013-01-14 19:31:00,
2013-01-14 12:32:00,27.0,18.2,29.86,SSW,202,1.1,1.8,69,0.00,,---,14.10,VWS V14.01,2013-01-14 19:32:00,
2013-01-14 12:33:00,27.0,18.5,29.85,SW,225,1.3,1.3,70,0.00,,---,14.10,VWS V14.01,2013-01-14 19:33:00,
2013-01-14 12:34:00,27.0,18.2,29.85,South,180,1.6,1.6,69,0.00,,---,14.10,VWS V14.01,2013-01-14 19:34:00,
2013-01-14 12:35:00,27.0,17.9,29.85,SSE,158,2.5,2.5,68,0.00,,---,14.10,VWS V14.01,2013-01-14 19:35:00,
2013-01-14 12:36:00,27.0,18.5,29.85,SSE,158,3.4,3.4,70,0.00,,---,14.10,VWS V14.01,2013-01-14 19:36:00,
2013-01-14 12:37:00,27.0,17.9,29.85,South,180,2.0,3.4,68,0.00,,---,14.10,VWS V14.01,2013-01-14 19:37:00,
2013-01-14 12:38:00,27.0,17.5,29.85,SE,135,0.7,2.0,67,0.00,,---,14.10,VWS V14.01,2013-01-14 19:38:00,
2013-01-14 12:39:00,27.0,17.2,29.85,ESE,112,0.9,0.9,66,0.00,,---,14.10,VWS V14.01,2013-01-14 19:39:00,
2013-01-14 12:40:00,26.8,17.0,29.85,SSW,202,3.6,3.6,66,0.00,,---,14.10,VWS V14.01,2013-01-14 19:40:00,
2013-01-14 12:41:00,26.6,17.5,29.85,SSE,158,3.4,3.4,68,0.00,,---,14.10,VWS V14.01,2013-01-14 19:41:00,
2013-01-14 12:42:00,26.5,17.4,29.85,SSE,158,2.2,3.4,68,0.00,,---,14.10,VWS V14.01,2013-01-14 19:42:00,
2013-01-14 12:43:00,26.3,17.5,29.85,SSW,202,3.8,3.8,69,0.00,,---,14.10,VWS V14.01,2013-01-14 19:43:00,
2013-01-14 12:44:00,26.3,18.2,29.85,SSE,158,2.5,3.8,71,0.00,,---,14.10,VWS V14.01,2013-01-14 19:44:00,
2013-01-14 12:45:00,26.1,18.0,29.85,South,180,4.0,4.0,71,0.00,,---,14.10,VWS V14.01,2013-01-14 19:45:00,
2013-01-14 12:46:00,26.1,18.0,29.85,South,180,4.9,4.9,71,0.00,,---,14.10,VWS V14.01,2013-01-14 19:46:00,
2013-01-14 12:47:00,25.9,18.1,29.85,SE,135,3.8,4.9,72,0.00,,---,14.10,VWS V14.01,2013-01-14 19:47:00,
2013-01-14 12:48:00,25.7,17.9,29.85,SSE,158,1.1,3.8,72,0.00,,---,14.10,VWS V14.01,2013-01-14 19:48:00,
2013-01-14 12:49:00,25.7,18.3,29.85,East,90,3.4,3.4,73,0.00,,---,14.10,VWS V14.01,2013-01-14 19:49:00,
2013-01-14 12:50:00,25.7,18.6,29.85,SSE,158,2.0,3.4,74,0.00,,---,14.10,VWS V14.01,2013-01-14 19:50:00,
2013-01-14 12:51:00,25.7,18.6,29.85,SSE,158,2.0,2.0,74,0.00,,---,14.10,VWS V14.01,2013-01-14 19:51:00,
2013-01-14 12:52:00,25.6,18.8,29.85,SE,135,0.9,2.0,75,0.00,,---,14.10,VWS V14.01,2013-01-14 19:52:00,
2013-01-14 12:53:00,25.6,19.1,29.85,ESE,112,4.0,4.0,76,0.00,,---,14.10,VWS V14.01,2013-01-14 19:53:00,
2013-01-14 12:54:00,25.6,19.1,29.85,SE,135,1.8,4.0,76,0.00,,---,14.10,VWS V14.01,2013-01-14 19:54:00,
2013-01-14 12:55:00,25.6,19.4,29.85,SSE,158,0.2,1.8,77,0.00,,---,14.10,VWS V14.01,2013-01-14 19:55:00,
2013-01-14 12:56:00,25.6,19.4,29.85,SSE,158,0.2,0.2,77,0.00,,---,14.10,VWS V14.01,2013-01-14 19:56:00,
2013-01-14 12:57:00,25.6,20.0,29.85,South,180,0.9,0.9,79,0.00,,---,14.10,VWS V14.01,2013-01-14 19:57:00,
2013-01-14 12:58:00,25.6,20.0,29.85,SSE,158,2.7,2.7,79,0.00,,---,14.10,VWS V14.01,2013-01-14 19:58:00,
2013-01-14 12:59:00,25.6,20.3,29.85,South,180,0.4,2.7,80,0.00,,---,14.10,VWS V14.01,2013-01-14 19:59:00,
2013-01-14 13:00:00,25.6,20.3,29.85,South,180,0.4,0.4,80,0.00,,---,14.10,VWS V14.01,2013-01-14 20:00:00,
2013-01-14 13:01:00,25.6,20.6,29.85,SSW,202,2.5,2.5,81,0.00,,---,14.10,VWS V14.01,2013-01-14 20:01:00,
2013-01-14 13:02:00,25.6,20.6,29.85,SSE,158,3.6,3.6,81,0.00,,---,14.10,VWS V14.01,2013-01-14 20:02:00,
2013-01-14 13:03:00,25.4,20.4,29.85,South,180,2.2,3.6,81,0.00,,---,14.10,VWS V14.01,2013-01-14 20:03:00,
2013-01-14 13:04:00,25.2,19.9,29.85,SE,135,0.7,2.2,80,0.00,,---,14.10,VWS V14.01,2013-01-14 20:04:00,
2013-01-14 13:05:00,25.2,19.9,29.85,South,180,1.8,1.8,80,0.00,,---,14.10,VWS V14.01,2013-01-14 20:05:00,
2013-01-14 13:06:00,25.0,19.7,29.85,SE,135,0.4,0.4,80,0.00,,---,14.10,VWS V14.01,2013-01-14 20:06:00,
2013-01-14 13:07:00,25.0,19.7,29.85,SE,135,0.2,0.4,80,0.00,,---,14.10,VWS V14.01,2013-01-14 20:07:00,
2013-01-14 13:08:00,25.2,19.9,29.85,SE,135,0.9,0.9,80,0.00,,---,14.10,VWS V14.01,2013-01-14 20:08:00,
2013-01-14 13:09:00,25.0,20.0,29.85,SSE,158,1.1,1.1,81,0.00,,---,14.10,VWS V14.01,2013-01-14 20:09:00,
2013-01-14 13:10:00,25.2,20.2,29.85,SE,135,0.4,1.1,81,0.00,,---,14.10,VWS V14.01,2013-01-14 20:10:00,
2013-01-14 13:11:00,25.4,20.7,29.85,SSE,158,0.2,0.2,82,0.00,,---,14.10,VWS V14.01,2013-01-14 20:11:00,
2013-01-14 13:12:00,25.4,20.7,29.85,SSE,158,2.7,2.7,82,0.00,,---,14.10,VWS V14.01,2013-01-14 20:12:00,
2013-01-14 13:13:00,25.4,20.4,29.85,SSE,158,2.0,2.7,81,0.00,,---,14.10,VWS V14.01,2013-01-14 20:13:00,
2013-01-14 13:14:00,25.4,20.1,29.85,SSE,158,0.4,2.0,80,0.00,,---,14.10,VWS V14.01,2013-01-14 20:14:00,
2013-01-14 13:15:00,25.2,20.2,29.85,SSE,158,0.2,0.4,81,0.00,,---,14.10,VWS V14.01,2013-01-14 20:15:00,
2013-01-14 13:16:00,25.0,19.7,29.85,SSE,158,0.9,0.9,80,0.00,,---,14.10,VWS V14.01,2013-01-14 20:16:00,
2013-01-14 13:17:00,25.0,19.7,29.85,SE,135,2.2,2.2,80,0.00,,---,14.10,VWS V14.01,2013-01-14 20:17:00,
2013-01-14 13:18:00,25.0,19.7,29.85,SSE,158,0.9,2.2,80,0.00,,---,14.10,VWS V14.01,2013-01-14 20:18:00,
2013-01-14 13:19:00,25.0,19.7,29.85,SSE,158,1.1,1.1,80,0.00,,---,14.10,VWS V14.01,2013-01-14 20:19:00,
2013-01-14 13:20:00,25.0,19.7,29.85,South,180,0.4,1.1,80,0.00,,---,14.10,VWS V14.01,2013-01-14 20:20:00,
2013-01-14 13:21:00,25.0,19.7,29.85,South,180,0.7,0.7,80,0.00,,---,14.10,VWS V14.01,2013-01-14 20:21:00,
2013-01-14 13:22:00,25.0,19.7,29.85,SE,135,0.4,0.7,80,0.00,,---,14.10,VWS V14.01,2013-01-14 20:22:00,
2013-01-14 13:23:00,25.0,19.7,29.85,ESE,112,0.7,0.7,80,0.00,,---,14.10,VWS V14.01,2013-01-14 20:23:00,
2013-01-14 13:24:00,25.2,20.2,29.85,SSE,158,0.4,0.7,81,0.00,,---,14.10,VWS V14.01,2013-01-14 20:24:00,
2013-01-14 13:25:00,25.2,20.5,29.85,SE,135,0.4,0.4,82,0.00,,---,14.10,VWS V14.01,2013-01-14 20:25:00,
2013-01-14 13:26:00,25.4,20.4,29.85,SSE,158,1.1,1.1,81,0.00,,---,14.10,VWS V14.01,2013-01-14 20:26:00,
2013-01-14 13:27:00,25.4,20.4,29.85,South,180,1.1,1.1,81,0.00,,---,14.10,VWS V14.01,2013-01-14 20:27:00,
2013-01-14 13:28:00,25.4,20.1,29.85,South,180,0.4,1.1,80,0.00,,---,14.10,VWS V14.01,2013-01-14 20:28:00,
2013-01-14 13:29:00,25.4,20.4,29.85,South,180,0.4,0.4,81,0.00,,---,14.10,VWS V14.01,2013-01-14 20:29:00,
2013-01-14 13:30:00,25.2,20.2,29.85,ESE,112,0.4,0.4,81,0.00,,---,14.10,VWS V14.01,2013-01-14 20:30:00,
2013-01-14 13:31:00,25.4,20.7,29.85,SE,135,1.6,1.6,82,0.00,,---,14.10,VWS V14.01,2013-01-14 20:31:00,
2013-01-14 13:32:00,25.4,20.7,29.85,SE,135,0.4,1.6,82,0.00,,---,14.10,VWS V14.01,2013-01-14 20:32:00,
2013-01-14 13:33:00,25.4,20.7,29.85,SSW,202,1.8,1.8,82,0.00,,---,14.10,VWS V14.01,2013-01-14 20:33:00,
2013-01-14 13:34:00,25.2,20.8,29.84,SW,225,3.8,3.8,83,0.00,,---,14.10,VWS V14.01,2013-01-14 20:34:00,
2013-01-14 13:35:00,25.0,20.6,29.85,SSW,202,1.8,3.8,83,0.00,,---,14.10,VWS V14.01,2013-01-14 20:35:00,
2013-01-14 13:36:00,25.0,20.9,29.85,SW,225,2.5,2.5,84,0.00,,---,14.10,VWS V14.01,2013-01-14 20:36:00,
2013-01-14 13:37:00,24.7,20.6,29.85,SW,225,6.0,6.0,84,0.00,,---,14.10,VWS V14.01,2013-01-14 20:37:00,
2013-01-14 13:38:00,24.5,20.4,29.85,West,270,4.3,6.0,84,0.00,,---,14.10,VWS V14.01,2013-01-14 20:38:00,
2013-01-14 13:39:00,24.3,20.2,29.85,SW,225,1.8,4.3,84,0.00,,---,14.10,VWS V14.01,2013-01-14 20:39:00,
2013-01-14 13:40:00,24.3,20.5,29.85,SW,225,0.7,1.8,85,0.00,,---,14.10,VWS V14.01,2013-01-14 20:40:00,
2013-01-14 13:41:00,24.3,20.5,29.85,SW,225,0.9,0.9,85,0.00,,---,14.10,VWS V14.01,2013-01-14 20:41:00,
2013-01-14 13:42:00,24.3,20.7,29.85,WSW,248,0.9,0.9,86,0.00,,---,14.10,VWS V14.01,2013-01-14 20:42:00,
2013-01-14 13:43:00,24.3,20.7,29.85,West,270,0.4,0.9,86,0.00,,---,14.10,VWS V14.01,2013-01-14 20:43:00,
2013-01-14 13:44:00,24.3,20.7,29.85,WSW,248,0.9,0.9,86,0.00,,---,14.10,VWS V14.01,2013-01-14 20:44:00,
2013-01-14 13:45:00,24.5,20.6,29.85,WSW,248,0.2,0.9,85,0.00,,---,14.10,VWS V14.01,2013-01-14 20:45:00,
2013-01-14 13:46:00,24.5,20.6,29.85,WSW,248,0.2,0.2,85,0.00,,---,14.10,VWS V14.01,2013-01-14 20:46:00,
2013-01-14 13:47:00,24.8,20.4,29.85,NW,315,0.9,1.3,83,0.00,,---,14.10,VWS V14.01,2013-01-14 20:47:00,
2013-01-14 13:48:00,24.8,20.4,29.85,West,270,3.4,3.4,83,0.00,,---,14.10,VWS V14.01,2013-01-14 20:48:00,
2013-01-14 13:49:00,24.8,20.7,29.85,SW,225,0.4,3.4,84,0.00,,---,14.10,VWS V14.01,2013-01-14 20:49:00,
2013-01-14 13:50:00,24.8,20.4,29.85,NNW,338,1.8,1.8,83,0.00,,---,14.10,VWS V14.01,2013-01-14 20:50:00,
2013-01-14 13:51:00,24.8,20.4,29.85,NNW,338,1.8,1.8,83,0.00,,---,14.10,VWS V14.01,2013-01-14 20:51:00,
2013-01-14 13:52:00,25.0,20.6,29.85,NW,315,2.2,2.2,83,0.00,,---,14.10,VWS V14.01,2013-01-14 20:52:00,
2013-01-14 13:53:00,25.2,20.8,29.85,NNW,338,4.5,4.5,83,0.00,,---,14.10,VWS V14.01,2013-01-14 20:53:00,
2013-01-14 13:54:00,25.2,20.8,29.85,North,0,2.5,4.5,83,0.00,,---,14.10,VWS V14.01,2013-01-14 20:54:00,
2013-01-14 13:55:00,25.0,20.6,29.85,NNW,338,5.6,5.6,83,0.00,,---,14.10,VWS V14.01,2013-01-14 20:55:00,
2013-01-14 13:56:00,25.0,20.6,29.85,NNW,338,5.6,5.6,83,0.00,,---,14.10,VWS V14.01,2013-01-14 20:56:00,
2013-01-14 13:57:00,24.8,20.1,29.85,West,270,6.9,6.9,82,0.00,,---,14.10,VWS V14.01,2013-01-14 20:57:00,
2013-01-14 13:58:00,24.7,20.3,29.85,NW,315,4.0,6.9,83,0.00,,---,14.10,VWS V14.01,2013-01-14 20:58:00,
2013-01-14 13:59:00,24.5,20.1,29.85,WNW,292,3.4,4.0,83,0.00,,---,14.10,VWS V14.01,2013-01-14 20:59:00,
2013-01-14 14:00:00,24.5,20.1,29.85,WNW,292,4.7,4.7,83,0.00,,---,14.10,VWS V14.01,2013-01-14 21:00:00,
2013-01-14 14:01:00,24.3,20.2,29.85,NNW,338,5.4,5.4,84,0.00,,---,14.10,VWS V14.01,2013-01-14 21:01:00,
2013-01-14 14:02:00,24.1,20.0,29.85,West,270,3.8,5.4,84,0.00,,---,14.10,VWS V14.01,2013-01-14 21:02:00,
2013-01-14 14:03:00,24.1,20.0,29.86,NW,315,2.5,3.8,84,0.00,,---,14.10,VWS V14.01,2013-01-14 21:03:00,
2013-01-14 14:04:00,24.1,20.2,29.85,NNW,338,2.7,2.7,85,0.00,,---,14.10,VWS V14.01,2013-01-14 21:04:00,
2013-01-14 14:05:00,24.3,20.2,29.86,North,0,0.7,2.7,84,0.00,,---,14.10,VWS V14.01,2013-01-14 21:05:00,
2013-01-14 14:06:00,24.3,20.2,29.86,North,0,1.8,1.8,84,0.00,,---,14.10,VWS V14.01,2013-01-14 21:06:00,
2013-01-14 14:07:00,24.3,20.2,29.86,NW,315,3.4,3.4,84,0.00,,---,14.10,VWS V14.01,2013-01-14 21:07:00,
2013-01-14 14:08:00,24.3,20.2,29.86,NW,315,2.9,3.4,84,0.00,,---,14.10,VWS V14.01,2013-01-14 21:08:00,
2013-01-14 14:09:00,24.5,20.4,29.86,North,0,3.4,3.4,84,0.00,,---,14.10,VWS V14.01,2013-01-14 21:09:00,
2013-01-14 14:10:00,24.3,20.2,29.86,NW,315,5.4,5.4,84,0.00,,---,14.10,VWS V14.01,2013-01-14 21:10:00,
2013-01-14 14:11:00,24.3,20.2,29.86,NNW,338,3.6,3.6,84,0.00,,---,14.10,VWS V14.01,2013-01-14 21:11:00,
2013-01-14 14:12:00,24.1,20.0,29.86,NNW,338,3.4,3.6,84,0.00,,---,14.10,VWS V14.01,2013-01-14 21:12:00,
2013-01-14 14:13:00,24.1,20.0,29.86,NW,315,3.4,3.4,84,0.00,,---,14.10,VWS V14.01,2013-01-14 21:13:00,
2013-01-14 14:14:00,24.1,20.0,29.86,NNW,338,2.2,3.4,84,0.00,,---,14.10,VWS V14.01,2013-01-14 21:14:00,
2013-01-14 14:15:00,24.3,20.2,29.86,NNW,338,1.8,2.2,84,0.00,,---,14.10,VWS V14.01,2013-01-14 21:15:00,
2013-01-14 14:16:00,24.3,20.2,29.86,North,0,2.5,2.5,84,0.00,,---,14.10,VWS V14.01,2013-01-14 21:16:00,
2013-01-14 14:17:00,24.5,20.4,29.86,NNW,338,2.5,2.5,84,0.00,,---,14.10,VWS V14.01,2013-01-14 21:17:00,
2013-01-14 14:18:00,24.5,20.4,29.86,NW,315,1.8,2.5,84,0.00,,---,14.10,VWS V14.01,2013-01-14 21:18:00,
2013-01-14 14:19:00,24.7,20.6,29.86,WNW,292,2.9,2.9,84,0.00,,---,14.10,VWS V14.01,2013-01-14 21:19:00,
2013-01-14 14:20:00,24.8,20.7,29.86,NW,315,3.8,3.8,84,0.00,,---,14.10,VWS V14.01,2013-01-14 21:20:00,
2013-01-14 14:21:00,24.8,20.4,29.86,North,0,2.9,2.9,83,0.00,,---,14.10,VWS V14.01,2013-01-14 21:21:00,
2013-01-14 14:22:00,25.0,20.6,29.86,NW,315,4.7,4.7,83,0.00,,---,14.10,VWS V14.01,2013-01-14 21:22:00,
2013-01-14 14:23:00,25.2,20.5,29.86,NNW,338,3.4,4.7,82,0.00,,---,14.10,VWS V14.01,2013-01-14 21:23:00,
2013-01-14 14:24:00,25.2,19.9,29.86,West,270,4.5,4.5,80,0.00,,---,14.10,VWS V14.01,2013-01-14 21:24:00,
2013-01-14 14:25:00,25.6,20.6,29.86,NW,315,3.1,4.5,81,0.00,,---,14.10,VWS V14.01,2013-01-14 21:25:00,
2013-01-14 14:26:00,25.6,20.6,29.86,NW,315,3.1,3.1,81,0.00,,---,14.10,VWS V14.01,2013-01-14 21:26:00,
2013-01-14 14:31:00,25.6,20.3,29.86,WNW,292,4.7,4.7,80,0.00,,---,14.10,VWS V14.01,2013-01-14 21:31:00,
2013-01-14 14:32:00,26.1,20.5,29.86,North,0,4.0,4.7,79,0.00,,---,14.10,VWS V14.01,2013-01-14 21:32:00,
2013-01-14 14:33:00,26.3,20.7,29.86,NW,315,1.3,4.0,79,0.00,,---,14.10,VWS V14.01,2013-01-14 21:33:00,
2013-01-14 14:34:00,26.1,20.2,29.87,NNW,338,5.1,5.1,78,0.00,,---,14.10,VWS V14.01,2013-01-14 21:34:00,
2013-01-14 14:35:00,26.3,20.4,29.86,NNW,338,4.5,5.1,78,0.00,,---,14.10,VWS V14.01,2013-01-14 21:35:00,
2013-01-14 14:36:00,26.3,20.4,29.86,NNW,338,4.5,4.5,78,0.00,,---,14.10,VWS V14.01,2013-01-14 21:36:00,
2013-01-14 14:37:00,26.3,20.4,29.87,NW,315,4.0,4.0,78,0.00,,---,14.10,VWS V14.01,2013-01-14 21:37:00,
2013-01-14 14:38:00,26.3,20.4,29.87,NNW,338,3.1,4.0,78,0.00,,---,14.10,VWS V14.01,2013-01-14 21:38:00,
2013-01-14 14:39:00,26.3,20.4,29.86,NW,315,3.6,3.6,78,0.00,,---,14.10,VWS V14.01,2013-01-14 21:39:00,
2013-01-14 14:40:00,26.3,20.4,29.87,WNW,292,5.1,5.1,78,0.00,,---,14.10,VWS V14.01,2013-01-14 21:40:00,
2013-01-14 14:41:00,26.3,20.4,29.87,WNW,292,5.1,5.1,78,0.00,,---,14.10,VWS V14.01,2013-01-14 21:41:00,
2013-01-14 14:42:00,26.3,20.4,29.87,NW,315,4.0,4.0,78,0.00,,---,14.10,VWS V14.01,2013-01-14 21:42:00,
2013-01-14 14:43:00,26.3,20.1,29.87,NW,315,3.4,4.0,77,0.00,,---,14.10,VWS V14.01,2013-01-14 21:43:00,
2013-01-14 14:44:00,26.3,20.4,29.87,NNW,338,2.5,3.4,78,0.00,,---,14.10,VWS V14.01,2013-01-14 21:44:00,
2013-01-14 14:45:00,26.5,20.6,29.87,NNW,338,3.8,3.8,78,0.00,,---,14.10,VWS V14.01,2013-01-14 21:45:00,
2013-01-14 14:46:00,26.5,20.6,29.87,NNW,338,3.8,3.8,78,0.00,,---,14.10,VWS V14.01,2013-01-14 21:46:00,
2013-01-14 14:47:00,26.5,20.3,29.87,WNW,292,3.4,3.4,77,0.00,,---,14.10,VWS V14.01,2013-01-14 21:47:00,
2013-01-14 14:48:00,26.6,20.4,29.87,NNW,338,2.2,3.4,77,0.00,,---,14.10,VWS V14.01,2013-01-14 21:48:00,
2013-01-14 14:49:00,26.6,20.4,29.87,NNW,338,1.1,2.2,77,0.00,,---,14.10,VWS V14.01,2013-01-14 21:49:00,
2013-01-14 14:50:00,26.6,20.4,29.87,NNW,338,3.8,3.8,77,0.00,,---,14.10,VWS V14.01,2013-01-14 21:50:00,
2013-01-14 14:51:00,26.6,20.4,29.87,NNW,338,3.8,3.8,77,0.00,,---,14.10,VWS V14.01,2013-01-14 21:51:00,
2013-01-14 14:52:00,26.8,20.9,29.87,NW,315,3.8,3.8,78,0.00,,---,14.10,VWS V14.01,2013-01-14 21:52:00,
2013-01-14 14:53:00,26.6,20.7,29.87,North,0,3.8,3.8,78,0.00,,---,14.10,VWS V14.01,2013-01-14 21:53:00,
2013-01-14 14:54:00,26.6,20.4,29.87,North,0,2.5,3.8,77,0.00,,---,14.10,VWS V14.01,2013-01-14 21:54:00,
2013-01-14 14:55:00,26.5,20.0,29.87,North,0,2.7,2.7,76,0.00,,---,14.10,VWS V14.01,2013-01-14 21:55:00,
2013-01-14 14:56:00,26.5,20.0,29.87,North,0,2.7,2.7,76,0.00,,---,14.10,VWS V14.01,2013-01-14 21:56:00,
2013-01-14 14:57:00,26.3,19.8,29.87,NW,315,3.6,3.6,76,0.00,,---,14.10,VWS V14.01,2013-01-14 21:57:00,
2013-01-14 14:58:00,26.3,19.8,29.87,NW,315,0.7,3.6,76,0.00,,---,14.10,VWS V14.01,2013-01-14 21:58:00,
2013-01-14 19:17:00,33.1,33.1,30.16,North,0,0.0,0.0,100,0.00,,---,0.01,VWS V14.01,2013-01-15 02:17:00,
2013-01-14 19:22:00,20.9,19.0,29.94,NE,45,8.3,8.3,92,0.00,,---,14.10,VWS V14.01,2013-01-15 02:22:00,
2013-01-14 19:27:00,20.5,18.5,29.94,North,0,6.9,6.9,92,0.00,,---,14.10,VWS V14.01,2013-01-15 02:27:00,
2013-01-14 19:32:00,20.5,18.0,29.94,NNW,338,7.6,7.6,90,0.00,,---,14.10,VWS V14.01,2013-01-15 02:32:00,
2013-01-14 19:37:00,20.7,17.5,29.94,NNE,22,3.6,3.6,87,0.00,,---,14.10,VWS V14.01,2013-01-15 02:37:00,
2013-01-14 19:42:00,20.9,16.6,29.95,NNE,22,5.1,5.1,83,0.00,,---,14.10,VWS V14.01,2013-01-15 02:42:00,
2013-01-14 19:47:00,20.7,14.9,29.95,NNW,338,4.7,4.7,78,0.00,,---,14.10,VWS V14.01,2013-01-15 02:47:00,
2013-01-14 19:52:00,20.5,13.9,29.95,NNW,338,4.5,4.5,75,0.00,,---,14.10,VWS V14.01,2013-01-15 02:52:00,
2013-01-14 19:57:00,20.3,13.4,29.95,NNW,338,5.6,5.6,74,0.00,,---,14.10,VWS V14.01,2013-01-15 02:57:00,
2013-01-14 20:02:00,20.0,13.4,29.95,NW,315,6.7,6.7,75,0.00,,---,14.10,VWS V14.01,2013-01-15 03:02:00,
2013-01-14 20:07:00,19.8,12.9,29.95,WNW,292,3.4,3.4,74,0.00,,---,14.10,VWS V14.01,2013-01-15 03:07:00,
2013-01-14 20:12:00,19.6,13.3,29.95,NNW,338,4.5,4.5,76,0.00,,---,14.10,VWS V14.01,2013-01-15 03:12:00,
2013-01-14 20:17:00,19.4,13.4,29.95,NW,315,2.0,2.0,77,0.00,,---,14.10,VWS V14.01,2013-01-15 03:17:00,
2013-01-14 20:22:00,19.3,13.6,29.95,North,0,0.4,0.4,78,0.00,,---,14.10,VWS V14.01,2013-01-15 03:22:00,
2013-01-14 20:27:00,19.1,13.4,29.95,North,0,2.5,2.5,78,0.00,,---,14.10,VWS V14.01,2013-01-15 03:27:00,
2013-01-14 20:32:00,19.1,13.4,29.95,NW,315,4.0,4.0,78,0.00,,---,14.10,VWS V14.01,2013-01-15 03:32:00,
2013-01-14 20:37:00,18.9,13.5,29.95,NW,315,1.1,1.1,79,0.00,,---,14.10,VWS V14.01,2013-01-15 03:37:00,
2013-01-14 20:42:00,18.7,13.3,29.95,NW,315,3.4,3.4,79,0.00,,---,14.10,VWS V14.01,2013-01-15 03:42:00,
2013-01-14 20:47:00,18.4,13.3,29.95,WNW,292,2.9,2.9,80,0.00,,---,14.10,VWS V14.01,2013-01-15 03:47:00,
2013-01-14 20:52:00,18.4,13.3,29.95,NW,315,2.0,2.0,80,0.00,,---,14.10,VWS V14.01,2013-01-15 03:52:00,
2013-01-14 20:57:00,18.0,12.6,29.95,NW,315,2.9,2.9,79,0.00,,---,14.10,VWS V14.01,2013-01-15 03:57:00,
2013-01-14 21:02:00,17.8,12.7,29.96,WNW,292,1.3,1.3,80,0.00,,---,14.10,VWS V14.01,2013-01-15 04:02:00,
2013-01-14 21:07:00,17.6,12.8,29.96,NW,315,1.6,1.6,81,0.00,,---,14.10,VWS V14.01,2013-01-15 04:07:00,
2013-01-14 21:12:00,17.3,12.5,29.96,NW,315,0.2,0.2,81,0.00,,---,14.10,VWS V14.01,2013-01-15 04:12:00,
2013-01-14 21:17:00,17.1,12.3,29.96,North,0,3.4,3.4,81,0.00,,---,14.10,VWS V14.01,2013-01-15 04:17:00,
2013-01-14 21:22:00,16.9,12.1,29.96,NE,45,0.2,0.2,81,0.00,,---,14.10,VWS V14.01,2013-01-15 04:22:00,
2013-01-14 21:27:00,16.7,11.9,29.96,NNW,338,0.2,1.6,81,0.00,,---,14.10,VWS V14.01,2013-01-15 04:27:00,
2013-01-14 21:32:00,16.6,12.1,29.96,NNE,22,1.1,1.1,82,0.00,,---,14.10,VWS V14.01,2013-01-15 04:32:00,
2013-01-14 21:37:00,16.6,12.1,29.97,North,0,1.8,1.8,82,0.00,,---,14.10,VWS V14.01,2013-01-15 04:37:00,
2013-01-14 21:42:00,16.4,11.9,29.97,North,0,0.9,0.9,82,0.00,,---,14.10,VWS V14.01,2013-01-15 04:42:00,
2013-01-14 21:47:00,16.4,11.6,29.96,North,0,2.5,2.5,81,0.00,,---,14.10,VWS V14.01,2013-01-15 04:47:00,
2013-01-14 21:52:00,16.2,11.4,29.96,NNW,338,1.1,1.1,81,0.00,,---,14.10,VWS V14.01,2013-01-15 04:52:00,
2013-01-14 21:57:00,16.2,11.4,29.96,NNE,22,0.2,0.2,81,0.00,,---,14.10,VWS V14.01,2013-01-15 04:57:00,
2013-01-14 22:00:00,16.4,11.6,29.96,North,0,2.9,2.9,81,0.00,,---,14.10,VWS V14.01,2013-01-15 05:00:00,
2013-01-14 22:05:00,16.4,11.6,29.96,North,0,3.4,3.4,81,0.00,,---,14.10,VWS V14.01,2013-01-15 05:05:00,
2013-01-14 22:10:00,16.2,11.4,29.96,NNW,338,4.0,4.0,81,0.00,,---,14.10,VWS V14.01,2013-01-15 05:10:00,
2013-01-14 22:15:00,16.4,11.6,29.96,NW,315,3.6,3.6,81,0.00,,---,14.10,VWS V14.01,2013-01-15 05:15:00,
2013-01-14 22:20:00,16.6,11.8,29.97,WNW,292,2.9,2.9,81,0.00,,---,14.10,VWS V14.01,2013-01-15 05:20:00,
2013-01-14 22:25:00,16.4,11.6,29.97,NW,315,2.7,2.7,81,0.00,,---,14.10,VWS V14.01,2013-01-15 05:25:00,
2013-01-14 22:30:00,16.2,11.4,29.96,North,0,0.0,0.0,81,0.00,,---,14.10,VWS V14.01,2013-01-15 05:30:00,
2013-01-14 22:35:00,16.2,11.4,29.96,NW,315,3.6,3.6,81,0.00,,---,14.10,VWS V14.01,2013-01-15 05:35:00,
2013-01-14 22:40:00,16.0,10.9,29.97,North,0,2.2,2.2,80,0.00,,---,14.10,VWS V14.01,2013-01-15 05:40:00,
2013-01-14 22:45:00,16.0,10.6,29.97,North,0,1.1,1.1,79,0.00,,---,14.10,VWS V14.01,2013-01-15 05:45:00,
2013-01-14 22:50:00,15.8,10.5,29.97,NW,315,2.5,2.5,79,0.00,,---,14.10,VWS V14.01,2013-01-15 05:50:00,
2013-01-14 22:55:00,15.5,10.2,29.97,NNE,22,2.5,2.5,79,0.00,,---,14.10,VWS V14.01,2013-01-15 05:55:00,
2013-01-14 23:00:00,15.5,10.2,29.97,North,0,2.7,2.7,79,0.00,,---,14.10,VWS V14.01,2013-01-15 06:00:00,
2013-01-14 23:05:00,15.5,10.4,29.97,NNE,22,2.7,2.7,80,0.00,,---,14.10,VWS V14.01,2013-01-15 06:05:00,
2013-01-14 23:10:00,15.1,10.3,29.97,NNW,338,3.1,3.1,81,0.00,,---,14.10,VWS V14.01,2013-01-15 06:10:00,
2013-01-14 23:15:00,14.9,9.9,29.97,NNE,22,2.2,2.2,80,0.00,,---,14.10,VWS V14.01,2013-01-15 06:15:00,
2013-01-14 23:20:00,14.9,10.1,29.97,NNE,22,4.0,4.0,81,0.00,,---,14.10,VWS V14.01,2013-01-15 06:20:00,
2013-01-14 23:25:00,14.8,9.8,29.97,NNE,22,0.4,0.4,80,0.00,,---,14.10,VWS V14.01,2013-01-15 06:25:00,
2013-01-14 23:30:00,14.8,10.0,29.97,North,0,0.2,0.2,81,0.00,,---,14.10,VWS V14.01,2013-01-15 06:30:00,
2013-01-14 23:35:00,14.6,10.1,29.97,North,0,0.0,0.0,82,0.00,,---,14.10,VWS V14.01,2013-01-15 06:35:00,
2013-01-14 23:40:00,14.4,10.2,29.97,NNE,22,0.4,0.4,83,0.00,,---,14.10,VWS V14.01,2013-01-15 06:40:00,
2013-01-14 23:45:00,14.4,10.7,29.97,NNE,22,0.4,0.4,85,0.00,,---,14.10,VWS V14.01,2013-01-15 06:45:00,
2013-01-14 23:50:00,14.0,10.6,29.97,North,0,1.1,1.1,86,0.00,,---,14.10,VWS V14.01,2013-01-15 06:50:00,
2013-01-14 23:55:00,14.2,11.1,29.97,NNE,22,0.7,0.7,87,0.00,,---,14.10,VWS V14.01,2013-01-15 06:55:00,